Time;durP1;ratioP1;P1;durP2;ratioP2;P2;SDS_P1;SDS_P2;PMS_P1;PMS_P2;Temp;Humidity;BMP_temperature;BMP_pressure;BME280_temperature;BME280_humidity;BME280_pressure;Samples;Min_cycle;Max_cycle;Signal;HPM_P1;HPM_P2
2023/07/17 00:01:40;;;;;;;15.07;8.23;;;;;;;;;;5052492;28;20021;-78
2023/07/17 00:04:06;;;;;;;18.77;7.32;;;;;;;;;;5053776;28;20068;-78
2023/07/17 00:06:32;;;;;;;15.60;7.22;;;;;;;;;;5054514;28;20075;-78
2023/07/17 00:08:58;;;;;;;16.00;7.90;;;;;;;;;;5052841;28;20383;-78
2023/07/17 00:11:24;;;;;;;11.77;7.88;;;;;;;;;;5054642;28;20043;-78
2023/07/17 00:13:50;;;;;;;11.27;7.80;;;;;;;;;;5054088;28;20017;-78
2023/07/17 00:16:16;;;;;;;13.75;7.88;;;;;;;;;;5054420;28;20017;-78
2023/07/17 00:18:43;;;;;;;10.60;6.82;;;;;;;;;;5052718;28;20021;-78
2023/07/17 00:21:10;;;;;;;14.80;6.97;;;;;;;;;;5053584;28;20017;-78
2023/07/17 00:23:36;;;;;;;11.05;7.38;;;;;;;;;;5069480;28;20029;-78
2023/07/17 00:26:02;;;;;;;14.30;7.13;;;;;;;;;;5053839;28;20020;-78
2023/07/17 00:28:28;;;;;;;14.63;6.45;;;;;;;;;;5053715;28;20455;-79
2023/07/17 00:30:55;;;;;;;13.00;7.18;;;;;;;;;;5052607;28;20035;-78
2023/07/17 00:33:21;;;;;;;11.90;7.50;;;;;;;;;;5052850;28;20013;-77
2023/07/17 00:35:47;;;;;;;13.02;6.75;;;;;;;;;;5053748;28;20096;-78
2023/07/17 00:38:13;;;;;;;13.07;6.90;;;;;;;;;;5053829;28;20021;-78
2023/07/17 00:40:40;;;;;;;12.85;6.97;;;;;;;;;;5053651;28;20051;-78
2023/07/17 00:43:09;;;;;;;16.02;7.43;;;;;;;;;;5053337;28;20364;-78
2023/07/17 00:45:35;;;;;;;11.63;7.15;;;;;;;;;;5053472;28;20043;-78
2023/07/17 00:48:02;;;;;;;17.65;7.35;;;;;;;;;;5053495;28;20049;-78
2023/07/17 00:50:28;;;;;;;19.33;7.95;;;;;;;;;;5052710;28;20107;-78
2023/07/17 00:52:55;;;;;;;15.57;7.40;;;;;;;;;;5053777;28;20025;-78
2023/07/17 00:55:21;;;;;;;11.95;7.60;;;;;;;;;;5053485;28;20359;-78
2023/07/17 00:57:48;;;;;;;12.50;7.32;;;;;;;;;;5053689;28;20025;-78
2023/07/17 01:00:15;;;;;;;11.13;6.60;;;;;;;;;;5052004;28;20576;-78
2023/07/17 01:02:42;;;;;;;13.80;7.10;;;;;;;;;;5052161;28;20025;-78
2023/07/17 01:05:11;;;;;;;15.73;7.32;;;;;;;;;;5052242;28;20021;-78
2023/07/17 01:07:39;;;;;;;12.80;7.25;;;;;;;;;;5052366;28;20421;-78
2023/07/17 01:10:05;;;;;;;11.65;7.93;;;;;;;;;;5052023;28;20021;-78
2023/07/17 01:12:35;;;;;;;14.60;7.25;;;;;;;;;;5053616;28;20074;-78
2023/07/17 01:15:01;;;;;;;21.73;7.13;;;;;;;;;;5053505;28;20089;-78
2023/07/17 01:17:28;;;;;;;14.07;7.00;;;;;;;;;;5053306;28;20021;-78
2023/07/17 01:19:54;;;;;;;16.75;7.75;;;;;;;;;;5068661;28;20028;-78
2023/07/17 01:22:22;;;;;;;18.85;8.70;;;;;;;;;;5053794;28;20025;-78
2023/07/17 01:24:48;;;;;;;13.82;7.53;;;;;;;;;;5052039;28;20021;-78
2023/07/17 01:27:15;;;;;;;15.77;7.93;;;;;;;;;;5053183;28;20565;-78
2023/07/17 01:29:41;;;;;;;17.92;7.50;;;;;;;;;;5053268;28;20032;-78
2023/07/17 01:32:07;;;;;;;12.65;7.82;;;;;;;;;;5053550;28;20114;-78
2023/07/17 01:34:33;;;;;;;13.25;6.97;;;;;;;;;;5053357;28;20029;-78
2023/07/17 01:36:59;;;;;;;12.43;7.25;;;;;;;;;;5052872;28;20021;-78
2023/07/17 01:39:25;;;;;;;19.85;7.78;;;;;;;;;;5053045;28;20033;-78
2023/07/17 01:41:51;;;;;;;15.05;7.35;;;;;;;;;;5052860;28;20428;-78
2023/07/17 01:44:17;;;;;;;15.70;7.03;;;;;;;;;;5053093;28;20025;-78
2023/07/17 01:46:43;;;;;;;11.13;6.60;;;;;;;;;;5053147;28;20049;-78
2023/07/17 01:49:10;;;;;;;12.27;7.13;;;;;;;;;;5051739;28;20371;-78
2023/07/17 01:51:36;;;;;;;11.60;6.97;;;;;;;;;;5051764;28;20103;-78
2023/07/17 01:54:02;;;;;;;10.98;7.40;;;;;;;;;;5051761;28;20091;-78
2023/07/17 01:56:28;;;;;;;12.48;7.30;;;;;;;;;;5052987;28;20448;-78
2023/07/17 01:58:54;;;;;;;11.45;6.72;;;;;;;;;;5052831;28;20036;-78
2023/07/17 02:01:20;;;;;;;11.73;6.75;;;;;;;;;;5052748;28;20371;-78
2023/07/17 02:03:47;;;;;;;10.80;6.68;;;;;;;;;;5053092;28;20033;-78
2023/07/17 02:06:13;;;;;;;13.95;7.50;;;;;;;;;;5052957;28;20082;-78
2023/07/17 02:08:39;;;;;;;13.95;7.60;;;;;;;;;;5053178;28;20430;-78
2023/07/17 02:11:06;;;;;;;12.95;6.97;;;;;;;;;;5051872;28;20033;-78
2023/07/17 02:13:32;;;;;;;9.27;6.90;;;;;;;;;;5054491;28;20036;-78
2023/07/17 02:15:58;;;;;;;12.65;7.70;;;;;;;;;;5056412;28;20021;-78
2023/07/17 02:18:24;;;;;;;13.90;7.18;;;;;;;;;;5056831;28;20025;-78
2023/07/17 02:20:53;;;;;;;15.35;8.00;;;;;;;;;;5054667;28;20023;-78
2023/07/17 02:23:19;;;;;;;23.55;7.72;;;;;;;;;;5054960;28;20039;-77
2023/07/17 02:25:45;;;;;;;15.43;8.32;;;;;;;;;;5071822;28;20394;-78
2023/07/17 02:28:11;;;;;;;15.80;7.57;;;;;;;;;;5054795;28;20466;-78
2023/07/17 02:30:37;;;;;;;13.45;8.10;;;;;;;;;;5056360;28;20366;-78
2023/07/17 02:33:04;;;;;;;14.90;7.53;;;;;;;;;;5056270;28;20025;-78
2023/07/17 02:35:30;;;;;;;20.05;8.43;;;;;;;;;;5056199;28;20021;-78
2023/07/17 02:37:56;;;;;;;12.50;7.88;;;;;;;;;;5056063;28;20020;-78
2023/07/17 02:40:22;;;;;;;14.70;8.68;;;;;;;;;;5055693;28;20359;-77
2023/07/17 02:42:48;;;;;;;10.57;7.30;;;;;;;;;;5055775;28;20426;-77
2023/07/17 02:45:14;;;;;;;12.50;8.02;;;;;;;;;;5055940;28;20017;-77
2023/07/17 02:47:40;;;;;;;14.80;7.93;;;;;;;;;;5055321;28;20048;-77
2023/07/17 02:50:07;;;;;;;19.20;8.27;;;;;;;;;;5054416;28;20036;-77
2023/07/17 02:52:36;;;;;;;14.38;7.82;;;;;;;;;;5054530;28;20371;-77
2023/07/17 02:55:07;;;;;;;17.45;8.88;;;;;;;;;;5054366;28;20025;-78
2023/07/17 02:57:36;;;;;;;14.82;8.32;;;;;;;;;;5055514;28;20017;-77
2023/07/17 03:00:37;;;;;;;20.98;9.15;;;;;;;;;;5055643;28;20025;-77
2023/07/17 03:02:56;;;;;;;16.08;8.23;;;;;;;;;;5053030;28;20033;-77
2023/07/17 03:05:22;;;;;;;15.95;8.57;;;;;;;;;;5054207;28;20025;-77
2023/07/17 03:07:49;;;;;;;18.92;8.30;;;;;;;;;;5055297;28;20017;-77
2023/07/17 03:10:15;;;;;;;12.65;8.25;;;;;;;;;;5055083;28;20021;-77
2023/07/17 03:12:41;;;;;;;19.88;8.52;;;;;;;;;;5054251;28;20024;-77
2023/07/17 03:15:08;;;;;;;12.50;8.98;;;;;;;;;;5053851;28;20020;-78
2023/07/17 03:17:34;;;;;;;18.02;8.70;;;;;;;;;;5055089;28;20372;-78
2023/07/17 03:20:01;;;;;;;16.52;8.73;;;;;;;;;;5055441;28;20025;-77
2023/07/17 03:22:27;;;;;;;16.13;8.27;;;;;;;;;;5053810;28;20017;-77
2023/07/17 03:24:54;;;;;;;14.75;8.77;;;;;;;;;;5055229;28;20017;-77
2023/07/17 03:27:21;;;;;;;17.00;9.38;;;;;;;;;;5053814;28;20377;-77
2023/07/17 03:29:48;;;;;;;19.25;9.80;;;;;;;;;;5055026;28;20502;-77
2023/07/17 03:32:14;;;;;;;18.58;10.50;;;;;;;;;;5070239;28;20115;-77
2023/07/17 03:34:41;;;;;;;16.23;10.10;;;;;;;;;;5055055;28;20017;-78
2023/07/17 03:37:07;;;;;;;14.40;9.48;;;;;;;;;;5054795;28;20113;-77
2023/07/17 03:39:33;;;;;;;16.58;9.57;;;;;;;;;;5054770;28;20051;-77
2023/07/17 03:41:59;;;;;;;14.85;9.70;;;;;;;;;;5054900;28;20371;-77
2023/07/17 03:44:25;;;;;;;26.63;10.40;;;;;;;;;;5053387;28;20017;-77
2023/07/17 03:46:51;;;;;;;25.48;10.30;;;;;;;;;;5053313;28;20063;-77
2023/07/17 03:49:18;;;;;;;26.77;10.77;;;;;;;;;;5054946;28;20021;-78
2023/07/17 03:51:44;;;;;;;27.38;10.85;;;;;;;;;;5054492;28;20021;-77
2023/07/17 03:54:10;;;;;;;24.70;10.57;;;;;;;;;;5054260;28;20029;-77
2023/07/17 03:56:39;;;;;;;28.70;11.30;;;;;;;;;;5053342;28;20100;-77
2023/07/17 03:59:05;;;;;;;24.10;11.05;;;;;;;;;;5054234;28;20036;-77
2023/07/17 04:01:31;;;;;;;28.90;10.60;;;;;;;;;;5054143;28;20021;-77
2023/07/17 04:03:57;;;;;;;22.15;11.05;;;;;;;;;;5054273;28;20104;-77
2023/07/17 04:06:24;;;;;;;28.35;10.63;;;;;;;;;;5053137;28;20017;-78
2023/07/17 04:08:50;;;;;;;21.55;10.48;;;;;;;;;;5054353;28;20033;-77
2023/07/17 04:11:16;;;;;;;21.08;9.43;;;;;;;;;;5053952;28;20099;-77
2023/07/17 04:13:42;;;;;;;21.15;11.65;;;;;;;;;;5054368;28;20045;-77
2023/07/17 04:16:08;;;;;;;23.27;10.32;;;;;;;;;;5052825;28;20021;-77
2023/07/17 04:18:34;;;;;;;26.10;10.13;;;;;;;;;;5052826;28;20021;-77
2023/07/17 04:21:01;;;;;;;26.70;11.98;;;;;;;;;;5052737;28;20016;-77
2023/07/17 04:23:27;;;;;;;31.50;12.25;;;;;;;;;;5053843;28;20049;-77
2023/07/17 04:25:53;;;;;;;29.83;11.95;;;;;;;;;;5053755;28;20031;-78
2023/07/17 04:28:19;;;;;;;22.15;10.80;;;;;;;;;;5052621;28;20032;-78
2023/07/17 04:30:45;;;;;;;20.40;11.23;;;;;;;;;;5054077;28;20075;-77
2023/07/17 04:33:11;;;;;;;21.08;11.10;;;;;;;;;;5053837;28;20028;-77
2023/07/17 04:35:38;;;;;;;19.88;11.05;;;;;;;;;;5053139;28;20032;-76
2023/07/17 04:38:04;;;;;;;23.02;11.65;;;;;;;;;;5052677;28;20067;-76
2023/07/17 04:40:31;;;;;;;20.80;11.60;;;;;;;;;;5053632;28;20071;-77
2023/07/17 04:43:00;;;;;;;20.02;10.77;;;;;;;;;;5053569;28;20344;-76
2023/07/17 04:45:27;;;;;;;22.90;11.85;;;;;;;;;;5053934;28;20017;-77
2023/07/17 04:47:53;;;;;;;25.92;11.52;;;;;;;;;;5053431;28;20049;-76
2023/07/17 04:50:19;;;;;;;16.55;10.55;;;;;;;;;;5053691;28;20033;-76
2023/07/17 04:52:45;;;;;;;16.73;10.60;;;;;;;;;;5053533;28;20071;-77
2023/07/17 04:55:12;;;;;;;14.88;10.30;;;;;;;;;;5053288;28;20074;-77
2023/07/17 04:57:38;;;;;;;23.45;11.02;;;;;;;;;;5053354;28;20035;-77
2023/07/17 05:00:05;;;;;;;16.05;10.52;;;;;;;;;;5053388;28;20024;-76
2023/07/17 05:02:31;;;;;;;24.13;11.73;;;;;;;;;;5053828;28;20475;-76
2023/07/17 05:04:57;;;;;;;21.52;12.18;;;;;;;;;;5053966;28;20023;-76
2023/07/17 05:07:23;;;;;;;16.75;11.88;;;;;;;;;;5052180;28;20017;-77
2023/07/17 05:09:49;;;;;;;24.90;11.90;;;;;;;;;;5053653;28;20023;-76
2023/07/17 05:12:16;;;;;;;23.65;12.93;;;;;;;;;;5053573;28;20044;-77
2023/07/17 05:14:42;;;;;;;21.63;12.57;;;;;;;;;;5053312;28;20040;-77
2023/07/17 05:17:08;;;;;;;27.13;13.57;;;;;;;;;;5052041;28;20090;-77
2023/07/17 05:19:34;;;;;;;24.52;14.45;;;;;;;;;;5053133;28;20425;-77
2023/07/17 05:22:00;;;;;;;33.40;16.08;;;;;;;;;;5051028;28;20025;-77
2023/07/17 05:24:26;;;;;;;25.65;15.55;;;;;;;;;;5053239;28;20471;-76
2023/07/17 05:26:53;;;;;;;23.95;14.48;;;;;;;;;;5053415;28;20087;-77
2023/07/17 05:29:19;;;;;;;27.23;14.25;;;;;;;;;;5052996;28;20028;-77
2023/07/17 05:31:45;;;;;;;20.08;13.50;;;;;;;;;;5053203;28;20029;-77
2023/07/17 05:34:11;;;;;;;22.38;13.20;;;;;;;;;;5052059;28;20021;-76
2023/07/17 05:36:37;;;;;;;25.17;13.73;;;;;;;;;;5051850;28;20474;-76
2023/07/17 05:39:04;;;;;;;24.95;12.85;;;;;;;;;;5053336;28;20086;-76
2023/07/17 05:41:32;;;;;;;24.27;14.05;;;;;;;;;;5053627;28;20021;-76
2023/07/17 05:43:58;;;;;;;19.05;13.30;;;;;;;;;;5053345;28;20024;-76
2023/07/17 05:46:25;;;;;;;21.38;13.35;;;;;;;;;;5051929;28;20021;-76
2023/07/17 05:48:51;;;;;;;19.35;12.38;;;;;;;;;;5056890;28;20097;-76
2023/07/17 05:51:17;;;;;;;21.90;12.63;;;;;;;;;;5056551;28;20383;-76
2023/07/17 05:53:43;;;;;;;27.60;13.25;;;;;;;;;;5056912;28;20454;-76
2023/07/17 05:56:09;;;;;;;22.65;12.93;;;;;;;;;;5056658;28;20028;-76
2023/07/17 05:58:35;;;;;;;22.13;13.45;;;;;;;;;;5057094;28;20024;-76
2023/07/17 06:01:01;;;;;;;23.52;12.90;;;;;;;;;;5055542;28;20017;-76
2023/07/17 06:03:28;;;;;;;19.08;12.50;;;;;;;;;;5055367;28;20021;-77
2023/07/17 06:05:54;;;;;;;20.10;12.10;;;;;;;;;;5056942;28;20040;-78
2023/07/17 06:08:20;;;;;;;18.15;11.82;;;;;;;;;;5056620;28;20027;-77
2023/07/17 06:10:46;;;;;;;19.77;11.95;;;;;;;;;;5056751;28;20031;-78
2023/07/17 06:13:12;;;;;;;23.67;11.95;;;;;;;;;;5055318;28;20123;-77
2023/07/17 06:15:39;;;;;;;17.85;10.95;;;;;;;;;;5056690;28;20100;-77
2023/07/17 06:18:05;;;;;;;18.98;11.20;;;;;;;;;;5056376;28;20024;-77
2023/07/17 06:20:31;;;;;;;20.58;12.15;;;;;;;;;;5054581;28;20031;-77
2023/07/17 06:22:58;;;;;;;21.02;12.35;;;;;;;;;;5056476;28;20045;-77
2023/07/17 06:25:24;;;;;;;17.17;10.82;;;;;;;;;;5056178;28;20025;-77
2023/07/17 06:27:50;;;;;;;18.83;10.45;;;;;;;;;;5055016;28;20452;-77
2023/07/17 06:30:16;;;;;;;16.23;11.07;;;;;;;;;;5055251;28;20033;-77
2023/07/17 06:32:44;;;;;;;17.67;11.40;;;;;;;;;;5054759;28;20023;-77
2023/07/17 06:35:10;;;;;;;22.38;11.13;;;;;;;;;;5054857;28;20033;-77
2023/07/17 06:37:36;;;;;;;21.80;11.05;;;;;;;;;;5055066;28;20025;-77
2023/07/17 06:40:06;;;;;;;16.98;10.23;;;;;;;;;;5055931;28;20021;-77
2023/07/17 06:42:33;;;;;;;22.77;10.63;;;;;;;;;;5055720;28;20082;-77
2023/07/17 06:44:59;;;;;;;21.13;10.90;;;;;;;;;;5055851;28;20023;-78
2023/07/17 06:47:26;;;;;;;18.15;10.52;;;;;;;;;;5055883;28;20048;-78
2023/07/17 06:49:52;;;;;;;18.40;9.32;;;;;;;;;;5054438;28;20032;-78
2023/07/17 06:52:18;;;;;;;19.27;10.13;;;;;;;;;;5055828;28;20025;-78
2023/07/17 06:54:44;;;;;;;22.15;10.50;;;;;;;;;;5055875;28;20056;-78
2023/07/17 06:57:10;;;;;;;15.38;9.60;;;;;;;;;;5055799;28;20021;-77
2023/07/17 06:59:36;;;;;;;17.30;9.70;;;;;;;;;;5053777;28;20025;-78
2023/07/17 07:02:02;;;;;;;16.92;8.70;;;;;;;;;;5054339;28;20016;-78
2023/07/17 07:04:28;;;;;;;18.85;9.32;;;;;;;;;;5055771;28;20375;-78
2023/07/17 07:06:55;;;;;;;16.42;8.88;;;;;;;;;;5053760;28;20017;-77
2023/07/17 07:09:21;;;;;;;17.17;7.80;;;;;;;;;;5048611;28;20029;-77
2023/07/17 07:11:47;;;;;;;17.85;7.63;;;;;;;;;;5037737;28;20115;-77
2023/07/17 07:14:13;;;;;;;14.90;7.70;;;;;;;;;;5053264;28;20017;-77
2023/07/17 07:16:39;;;;;;;15.50;7.82;;;;;;;;;;5053925;28;20040;-78
2023/07/17 07:19:06;;;;;;;15.10;8.85;;;;;;;;;;5054144;28;20082;-77
2023/07/17 07:21:32;;;;;;;16.85;8.25;;;;;;;;;;5054183;28;20052;-78
2023/07/17 07:23:58;;;;;;;16.27;8.20;;;;;;;;;;5054538;28;20021;-78
2023/07/17 07:26:24;;;;;;;18.50;8.45;;;;;;;;;;5054906;28;20456;-78
2023/07/17 07:28:50;;;;;;;17.77;8.25;;;;;;;;;;5054611;28;20028;-78
2023/07/17 07:31:17;;;;;;;20.60;8.38;;;;;;;;;;5053316;28;20140;-78
2023/07/17 07:33:43;;;;;;;18.42;7.70;;;;;;;;;;5053846;28;20367;-78
2023/07/17 07:36:09;;;;;;;14.57;7.95;;;;;;;;;;5054256;28;20013;-78
2023/07/17 07:38:35;;;;;;;14.32;7.72;;;;;;;;;;5054765;28;20439;-78
2023/07/17 07:41:01;;;;;;;11.82;7.70;;;;;;;;;;5054891;28;20021;-77
2023/07/17 07:43:27;;;;;;;12.95;7.72;;;;;;;;;;5054944;28;20375;-79
2023/07/17 07:45:54;;;;;;;16.63;7.15;;;;;;;;;;5054865;28;20074;-78
2023/07/17 07:48:20;;;;;;;16.02;6.90;;;;;;;;;;5053423;28;20092;-78
2023/07/17 07:50:46;;;;;;;17.58;6.97;;;;;;;;;;5054808;28;20541;-78
2023/07/17 07:53:12;;;;;;;17.90;7.18;;;;;;;;;;5054753;28;20013;-78
2023/07/17 07:55:38;;;;;;;12.50;7.65;;;;;;;;;;5054325;28;20021;-78
2023/07/17 07:58:04;;;;;;;18.77;7.30;;;;;;;;;;5054576;28;20032;-78
2023/07/17 08:00:31;;;;;;;11.38;7.40;;;;;;;;;;5054583;28;20021;-78
2023/07/17 08:02:57;;;;;;;15.05;7.75;;;;;;;;;;5054081;28;20027;-78
2023/07/17 08:05:23;;;;;;;16.58;8.07;;;;;;;;;;5054462;28;20021;-78
2023/07/17 08:07:49;;;;;;;11.55;7.72;;;;;;;;;;5054470;28;20047;-78
2023/07/17 08:10:15;;;;;;;17.08;7.28;;;;;;;;;;5053124;28;20443;-78
2023/07/17 08:12:41;;;;;;;10.35;7.70;;;;;;;;;;5053098;28;20447;-78
2023/07/17 08:15:08;;;;;;;11.63;7.90;;;;;;;;;;5052759;28;20027;-78
2023/07/17 08:17:34;;;;;;;13.48;7.50;;;;;;;;;;5054154;28;20021;-78
2023/07/17 08:20:01;;;;;;;11.18;7.40;;;;;;;;;;5052997;28;20063;-78
2023/07/17 08:22:27;;;;;;;11.80;7.03;;;;;;;;;;5042953;28;20028;-78
2023/07/17 08:24:53;;;;;;;12.48;6.97;;;;;;;;;;5053677;28;20032;-78
2023/07/17 08:27:19;;;;;;;10.50;6.43;;;;;;;;;;5054127;28;20079;-78
2023/07/17 08:29:45;;;;;;;9.25;6.75;;;;;;;;;;5054104;28;20017;-78
2023/07/17 08:32:11;;;;;;;11.70;6.75;;;;;;;;;;5052667;28;20017;-78
2023/07/17 08:34:37;;;;;;;12.60;7.03;;;;;;;;;;5052658;28;20532;-78
2023/07/17 08:37:03;;;;;;;10.82;6.63;;;;;;;;;;5052530;28;20043;-78
2023/07/17 08:39:30;;;;;;;13.55;7.32;;;;;;;;;;5053976;28;20025;-78
2023/07/17 08:41:56;;;;;;;11.07;6.35;;;;;;;;;;5053738;28;20017;-79
2023/07/17 08:44:22;;;;;;;16.50;6.30;;;;;;;;;;5069089;28;20044;-78
2023/07/17 08:46:48;;;;;;;8.13;6.10;;;;;;;;;;5053383;28;20021;-78
2023/07/17 08:49:19;;;;;;;8.60;6.10;;;;;;;;;;5053603;28;20028;-79
2023/07/17 08:51:50;;;;;;;10.87;6.33;;;;;;;;;;5053595;28;20021;-79
2023/07/17 08:54:16;;;;;;;;;;;;;;;;;;5054237;28;20070;-80
2023/07/17 08:56:42;;;;;;;11.45;7.03;;;;;;;;;;5053805;28;20380;-79
2023/07/17 08:59:10;;;;;;;9.93;6.32;;;;;;;;;;5053404;28;20494;-79
2023/07/17 09:01:36;;;;;;;12.63;6.70;;;;;;;;;;5052299;28;20021;-79
2023/07/17 09:04:07;;;;;;;10.00;6.53;;;;;;;;;;5052497;28;20051;-79
2023/07/17 09:06:33;;;;;;;10.73;6.25;;;;;;;;;;5052013;28;20028;-78
2023/07/17 09:09:00;;;;;;;9.95;5.70;;;;;;;;;;5052377;28;20359;-79
2023/07/17 09:11:27;;;;;;;8.32;6.03;;;;;;;;;;5053756;28;20025;-79
2023/07/17 09:13:53;;;;;;;8.82;5.40;;;;;;;;;;5052103;28;20116;-79
2023/07/17 09:16:24;;;;;;;11.43;5.22;;;;;;;;;;5052137;28;20021;-79
2023/07/17 09:18:51;;;;;;;10.30;5.60;;;;;;;;;;5052344;28;20021;-78
2023/07/17 09:21:19;;;;;;;11.40;5.65;;;;;;;;;;5053831;28;20051;-79
2023/07/17 09:23:55;;;;;;;9.40;6.18;;;;;;;;;;5058098;28;20091;-79
2023/07/17 09:26:22;;;;;;;11.35;6.88;;;;;;;;;;5057125;28;20100;-79
2023/07/17 09:28:56;;;;;;;8.63;6.15;;;;;;;;;;5056131;28;20040;-80
2023/07/17 09:31:31;;;;;;;11.57;6.28;;;;;;;;;;5055620;28;20078;-80
2023/07/17 09:33:58;;;;;;;9.75;6.57;;;;;;;;;;5072705;28;20025;-79
2023/07/17 09:36:24;;;;;;;12.32;6.10;;;;;;;;;;5057271;28;20024;-79
2023/07/17 09:38:55;;;;;;;8.73;7.00;;;;;;;;;;5055937;28;20036;-78
2023/07/17 09:41:25;;;;;;;9.25;5.85;;;;;;;;;;5057330;28;20021;-78
2023/07/17 09:43:54;;;;;;;8.10;5.78;;;;;;;;;;5057150;28;20013;-78
2023/07/17 09:46:21;;;;;;;9.98;5.72;;;;;;;;;;5057167;28;20013;-78
2023/07/17 09:48:48;;;;;;;9.85;5.90;;;;;;;;;;5056608;28;20440;-78
2023/07/17 09:51:18;;;;;;;10.82;5.75;;;;;;;;;;5055733;28;20017;-79
2023/07/17 09:53:45;;;;;;;8.17;5.87;;;;;;;;;;5057439;28;20028;-78
2023/07/17 09:56:16;;;;;;;14.07;6.07;;;;;;;;;;5056568;28;20013;-79
2023/07/17 09:58:53;;;;;;;10.90;5.38;;;;;;;;;;5056740;28;20024;-79
2023/07/17 10:01:20;;;;;;;9.48;5.10;;;;;;;;;;5054556;28;20020;-79
2023/07/17 10:03:50;;;;;;;9.23;4.80;;;;;;;;;;5057092;28;20021;-79
2023/07/17 10:06:20;;;;;;;5.25;4.18;;;;;;;;;;5056321;28;20363;-79
2023/07/17 10:08:47;;;;;;;8.45;4.68;;;;;;;;;;5056233;28;20036;-79
2023/07/17 10:11:16;;;;;;;5.47;4.55;;;;;;;;;;5056585;28;20662;-79
2023/07/17 10:13:46;;;;;;;8.38;5.35;;;;;;;;;;5056814;28;20468;-79
2023/07/17 10:16:17;;;;;;;7.10;4.82;;;;;;;;;;5056418;28;20024;-79
2023/07/17 10:18:47;;;;;;;7.68;5.68;;;;;;;;;;5071840;28;20024;-78
2023/07/17 10:21:14;;;;;;;7.55;5.38;;;;;;;;;;5071956;28;20100;-79
2023/07/17 10:23:42;;;;;;;8.20;4.57;;;;;;;;;;5055962;28;20080;-78
2023/07/17 10:26:09;;;;;;;9.68;4.22;;;;;;;;;;5056188;28;20025;-79
2023/07/17 10:28:36;;;;;;;9.10;4.38;;;;;;;;;;5071690;28;20363;-79
2023/07/17 10:31:09;;;;;;;7.28;4.60;;;;;;;;;;5052964;28;20107;-79
2023/07/17 10:33:36;;;;;;;7.75;4.18;;;;;;;;;;5056457;28;20028;-80
2023/07/17 10:36:03;;;;;;;4.97;3.22;;;;;;;;;;5055419;28;20074;-79
2023/07/17 10:38:30;;;;;;;8.73;3.67;;;;;;;;;;5054728;28;20078;-79
2023/07/17 10:41:03;;;;;;;10.10;4.15;;;;;;;;;;5056230;28;20063;-79
2023/07/17 10:43:30;;;;;;;9.90;4.70;;;;;;;;;;5054592;28;20028;-79
2023/07/17 10:45:56;;;;;;;7.13;4.35;;;;;;;;;;5055827;28;20024;-80
2023/07/17 10:48:25;;;;;;;4.38;3.40;;;;;;;;;;5055326;28;20480;-80
2023/07/17 10:50:53;;;;;;;6.57;4.07;;;;;;;;;;5055450;28;20111;-80
2023/07/17 10:53:19;;;;;;;7.68;3.35;;;;;;;;;;5055792;28;20063;-80
2023/07/17 10:55:46;;;;;;;8.20;3.50;;;;;;;;;;5055936;28;20024;-80
2023/07/17 10:58:18;;;;;;;11.23;4.53;;;;;;;;;;5055022;28;20020;-80
2023/07/17 11:00:44;;;;;;;5.80;4.25;;;;;;;;;;5054227;28;20053;-79
2023/07/17 11:03:10;;;;;;;8.23;4.03;;;;;;;;;;5055213;28;20021;-79
2023/07/17 11:05:38;;;;;;;6.18;3.88;;;;;;;;;;5055235;28;20025;-79
2023/07/17 11:08:04;;;;;;;10.90;4.22;;;;;;;;;;5055347;28;20021;-79
2023/07/17 11:10:31;;;;;;;6.05;3.83;;;;;;;;;;5055012;28;20036;-79
2023/07/17 11:13:01;;;;;;;5.15;3.55;;;;;;;;;;5055115;28;20021;-79
2023/07/17 11:15:27;;;;;;;3.73;2.90;;;;;;;;;;5055302;28;20020;-79
2023/07/17 11:17:53;;;;;;;10.30;3.10;;;;;;;;;;5055058;28;20028;-79
2023/07/17 11:20:19;;;;;;;5.15;2.90;;;;;;;;;;5053127;28;20029;-79
2023/07/17 11:22:46;;;;;;;4.95;2.95;;;;;;;;;;5053704;28;20013;-79
2023/07/17 11:25:13;;;;;;;5.55;3.20;;;;;;;;;;5054841;28;20089;-79
2023/07/17 11:27:40;;;;;;;6.47;3.55;;;;;;;;;;5055231;28;20025;-80
2023/07/17 11:30:26;;;;;;;5.97;3.40;;;;;;;;;;5052350;28;20055;-79
2023/07/17 11:32:58;;;;;;;5.88;3.63;;;;;;;;;;5052295;28;20032;-79
2023/07/17 11:35:25;;;;;;;5.47;2.95;;;;;;;;;;5052457;28;20029;-79
2023/07/17 11:37:53;;;;;;;6.65;3.50;;;;;;;;;;5035739;28;20372;-79
2023/07/17 11:40:19;;;;;;;6.53;3.22;;;;;;;;;;5050374;28;20029;-79
2023/07/17 11:42:55;;;;;;;4.28;3.40;;;;;;;;;;5032436;28;20017;-79
2023/07/17 11:45:23;;;;;;;4.50;3.20;;;;;;;;;;5016000;28;20128;-79
2023/07/17 11:47:49;;;;;;;4.80;2.92;;;;;;;;;;5032539;28;20076;-79
2023/07/17 11:50:19;;;;;;;4.35;2.95;;;;;;;;;;5035379;28;20040;-80
2023/07/17 11:52:45;;;;;;;6.57;3.58;;;;;;;;;;5052224;28;20079;-80
2023/07/17 11:55:11;;;;;;;4.45;3.20;;;;;;;;;;5051790;28;20151;-79
2023/07/17 11:57:37;;;;;;;5.05;3.00;;;;;;;;;;5052028;28;20582;-79
2023/07/17 12:00:04;;;;;;;7.28;3.47;;;;;;;;;;5051798;28;20513;-78
2023/07/17 12:02:30;;;;;;;4.90;2.75;;;;;;;;;;5053969;28;20052;-79
2023/07/17 12:05:01;;;;;;;5.82;2.97;;;;;;;;;;5049430;28;20482;-81
2023/07/17 12:07:27;;;;;;;6.70;3.22;;;;;;;;;;5053089;28;20017;-79
2023/07/17 12:09:53;;;;;;;7.47;3.00;;;;;;;;;;5054058;28;20514;-79
2023/07/17 12:12:20;;;;;;;8.10;3.30;;;;;;;;;;5054234;28;20027;-79
2023/07/17 12:14:46;;;;;;;4.50;3.28;;;;;;;;;;5053894;28;20027;-79
2023/07/17 12:17:12;;;;;;;9.85;3.10;;;;;;;;;;5053757;28;20021;-78
2023/07/17 12:19:38;;;;;;;4.43;2.78;;;;;;;;;;5069085;28;20037;-79
2023/07/17 12:22:04;;;;;;;6.25;3.20;;;;;;;;;;5052422;28;20021;-79
2023/07/17 12:24:30;;;;;;;3.35;2.70;;;;;;;;;;5053774;28;20448;-80
2023/07/17 12:26:57;;;;;;;7.15;3.00;;;;;;;;;;5054002;28;20100;-80
2023/07/17 12:29:23;;;;;;;5.72;3.30;;;;;;;;;;5053422;28;20029;-77
2023/07/17 12:31:50;;;;;;;8.05;2.95;;;;;;;;;;5053449;28;20028;-79
2023/07/17 12:34:16;;;;;;;9.32;4.00;;;;;;;;;;5052994;28;20032;-79
2023/07/17 12:36:42;;;;;;;3.95;3.45;;;;;;;;;;5052078;28;20021;-79
2023/07/17 12:39:15;;;;;;;5.43;3.17;;;;;;;;;;5051862;28;20033;-79
2023/07/17 12:41:42;;;;;;;7.65;3.33;;;;;;;;;;5053507;28;20418;-79
2023/07/17 12:44:09;;;;;;;5.18;3.17;;;;;;;;;;5052099;28;20025;-78
2023/07/17 12:46:35;;;;;;;6.28;2.88;;;;;;;;;;5051991;28;20116;-77
2023/07/17 12:49:01;;;;;;;5.45;3.10;;;;;;;;;;5051558;28;20041;-78
2023/07/17 12:51:27;;;;;;;5.20;2.65;;;;;;;;;;5052798;28;20021;-77
2023/07/17 12:53:53;;;;;;;7.18;3.45;;;;;;;;;;5052699;28;20025;-78
2023/07/17 12:56:20;;;;;;;10.52;3.00;;;;;;;;;;5050971;28;20017;-78
2023/07/17 12:58:46;;;;;;;6.50;3.50;;;;;;;;;;5052303;28;20018;-78
2023/07/17 13:01:13;;;;;;;6.70;3.55;;;;;;;;;;5067057;28;20017;-78
2023/07/17 13:03:40;;;;;;;4.47;3.17;;;;;;;;;;5051218;28;20414;-78
2023/07/17 13:06:06;;;;;;;5.07;3.40;;;;;;;;;;5051044;28;20456;-78
2023/07/17 13:08:32;;;;;;;4.43;3.45;;;;;;;;;;5052758;28;20017;-78
2023/07/17 13:10:58;;;;;;;8.07;3.30;;;;;;;;;;5052513;28;20505;-78
2023/07/17 13:13:24;;;;;;;6.13;3.53;;;;;;;;;;5053403;28;20029;-78
2023/07/17 13:15:50;;;;;;;4.78;3.30;;;;;;;;;;5051902;28;20539;-78
2023/07/17 13:18:16;;;;;;;6.60;3.63;;;;;;;;;;5051373;28;20529;-78
2023/07/17 13:20:43;;;;;;;6.55;3.30;;;;;;;;;;5053084;28;20017;-79
2023/07/17 13:23:09;;;;;;;8.63;3.08;;;;;;;;;;5053021;28;20027;-78
2023/07/17 13:25:35;;;;;;;8.05;2.78;;;;;;;;;;5068395;28;20025;-78
2023/07/17 13:28:02;;;;;;;8.55;3.03;;;;;;;;;;5052798;28;20028;-78
2023/07/17 13:30:28;;;;;;;5.35;3.03;;;;;;;;;;5053087;28;20467;-77
2023/07/17 13:32:54;;;;;;;5.20;3.05;;;;;;;;;;5051984;28;20460;-78
2023/07/17 13:35:20;;;;;;;4.68;2.63;;;;;;;;;;5053156;28;20459;-79
2023/07/17 13:37:46;;;;;;;8.77;3.20;;;;;;;;;;5052683;28;20476;-79
2023/07/17 13:40:13;;;;;;;7.53;3.33;;;;;;;;;;5053373;28;20028;-79
2023/07/17 13:42:39;;;;;;;5.65;3.40;;;;;;;;;;5053166;28;20017;-78
2023/07/17 13:45:05;;;;;;;5.43;3.63;;;;;;;;;;5053004;28;20017;-79
2023/07/17 13:47:31;;;;;;;3.80;2.97;;;;;;;;;;5052955;28;20076;-80
2023/07/17 13:49:58;;;;;;;5.95;3.47;;;;;;;;;;5053129;28;20031;-79
2023/07/17 13:52:24;;;;;;;4.90;3.20;;;;;;;;;;5052662;28;20467;-79
2023/07/17 13:54:51;;;;;;;5.90;3.10;;;;;;;;;;5052854;28;20021;-79
2023/07/17 13:57:17;;;;;;;7.13;3.22;;;;;;;;;;5052682;28;20021;-79
2023/07/17 13:59:43;;;;;;;8.73;3.00;;;;;;;;;;5052352;28;20107;-80
2023/07/17 14:02:09;;;;;;;6.43;3.40;;;;;;;;;;5052359;28;20044;-80
2023/07/17 14:04:35;;;;;;;4.47;3.40;;;;;;;;;;5052106;28;20035;-80
2023/07/17 14:07:01;;;;;;;9.85;3.72;;;;;;;;;;5051259;28;20363;-80
2023/07/17 14:09:27;;;;;;;9.32;3.67;;;;;;;;;;5054575;28;20485;-80
2023/07/17 14:11:53;;;;;;;7.28;3.30;;;;;;;;;;5055817;28;20437;-80
2023/07/17 14:14:20;;;;;;;4.93;3.13;;;;;;;;;;5056208;28;20017;-80
2023/07/17 14:16:46;;;;;;;6.22;3.42;;;;;;;;;;5071081;28;20071;-79
2023/07/17 14:19:12;;;;;;;8.52;3.42;;;;;;;;;;5054489;28;20083;-80
2023/07/17 14:21:38;;;;;;;8.25;3.72;;;;;;;;;;5053580;28;20100;-80
2023/07/17 14:24:05;;;;;;;5.65;3.45;;;;;;;;;;5056027;28;20017;-80
2023/07/17 14:26:31;;;;;;;7.30;3.35;;;;;;;;;;5055654;28;20020;-80
2023/07/17 14:28:57;;;;;;;6.97;3.60;;;;;;;;;;5056063;28;20451;-80